createdAt,value
2023-04-10T00:01:32.440Z,6.54
2023-04-10T00:04:00.064Z,6.56
2023-04-10T00:06:28.216Z,6.54
2023-04-10T00:08:56.771Z,6.55
2023-04-10T00:11:24.096Z,6.63
2023-04-10T00:13:51.517Z,6.77
2023-04-10T00:16:18.993Z,6.74
2023-04-10T00:18:46.284Z,6.79
2023-04-10T00:21:13.577Z,6.81
2023-04-10T00:23:40.939Z,6.76
2023-04-10T00:26:10.309Z,6.66
2023-04-10T00:28:38.256Z,6.84
2023-04-10T00:31:05.939Z,6.64
2023-04-10T00:33:33.224Z,6.42
2023-04-10T00:36:00.552Z,6.56
2023-04-10T00:38:27.858Z,6.60
2023-04-10T00:40:55.446Z,6.65
2023-04-10T00:43:24.350Z,6.16
2023-04-10T00:45:52.037Z,5.77
2023-04-10T00:48:19.417Z,5.81
2023-04-10T00:50:46.894Z,5.92
2023-04-10T00:53:14.200Z,5.92
2023-04-10T00:55:41.542Z,5.80
2023-04-10T00:58:08.803Z,5.87
2023-04-10T01:00:37.723Z,6.12
2023-04-10T01:03:05.219Z,6.12
2023-04-10T01:05:47.785Z,5.91
2023-04-10T01:08:23.762Z,5.59
2023-04-10T01:10:57.193Z,5.80
2023-04-10T01:13:28.660Z,5.63
2023-04-10T01:15:59.511Z,5.64
2023-04-10T01:18:28.530Z,5.53
2023-04-10T01:20:56.905Z,5.41
2023-04-10T01:23:42.157Z,5.20
2023-04-10T01:26:11.015Z,5.09
2023-04-10T01:28:49.045Z,5.49
2023-04-10T01:31:18.323Z,5.69
2023-04-10T01:33:48.702Z,5.73
2023-04-10T01:36:21.826Z,5.73
2023-04-10T01:38:51.173Z,5.58
2023-04-10T01:41:19.961Z,5.53
2023-04-10T01:43:50.423Z,5.20
2023-04-10T01:46:19.030Z,4.85
2023-04-10T01:48:47.000Z,5.02
2023-04-10T01:51:15.942Z,5.20
2023-04-10T01:53:44.257Z,5.05
2023-04-10T01:56:11.807Z,5.15
2023-04-10T01:58:39.253Z,5.11
2023-04-10T02:01:10.262Z,5.30
2023-04-10T02:03:41.395Z,5.40
2023-04-10T02:06:12.330Z,5.43
2023-04-10T02:08:41.895Z,5.49
2023-04-10T02:11:13.927Z,5.42
2023-04-10T02:13:41.676Z,5.44
2023-04-10T02:16:10.826Z,5.25
2023-04-10T02:18:39.438Z,5.11
2023-04-10T02:21:07.710Z,4.90
2023-04-10T02:23:35.000Z,4.69
2023-04-10T02:26:06.977Z,4.77
2023-04-10T02:28:34.227Z,4.72
2023-04-10T02:31:01.514Z,4.74
2023-04-10T02:33:30.150Z,4.70
2023-04-10T02:35:57.436Z,4.67
2023-04-10T02:38:24.718Z,4.62
2023-04-10T02:40:51.968Z,5.01
2023-04-10T02:43:19.294Z,4.88
2023-04-10T02:45:46.585Z,4.74
2023-04-10T02:48:13.856Z,4.76
2023-04-10T02:50:46.006Z,4.55
2023-04-10T02:53:15.308Z,4.63
2023-04-10T02:55:42.776Z,4.81
2023-04-10T02:58:10.031Z,4.75
2023-04-10T03:00:38.158Z,4.65
2023-04-10T03:03:05.918Z,4.73
2023-04-10T03:05:34.785Z,4.98
2023-04-10T03:08:03.374Z,5.00
2023-04-10T03:10:30.640Z,5.17
2023-04-10T03:12:57.882Z,5.29
2023-04-10T03:15:25.293Z,5.22
2023-04-10T03:17:53.055Z,4.98
2023-04-10T03:20:20.321Z,5.08
2023-04-10T03:22:47.579Z,5.30
2023-04-10T03:25:16.189Z,5.26
2023-04-10T03:27:43.457Z,5.39
2023-04-10T03:30:11.012Z,5.36
2023-04-10T03:32:39.005Z,5.29
2023-04-10T03:35:07.112Z,5.46
2023-04-10T03:37:34.554Z,5.56
2023-04-10T03:40:01.797Z,5.67
2023-04-10T03:42:30.507Z,5.73
2023-04-10T03:44:57.781Z,5.70
2023-04-10T03:47:25.218Z,5.63
2023-04-10T03:49:52.512Z,5.49
2023-04-10T03:52:19.764Z,5.47
2023-04-10T03:54:47.025Z,5.69
2023-04-10T03:57:14.291Z,5.53
2023-04-10T03:59:42.849Z,5.51
2023-04-10T04:02:10.850Z,5.47
2023-04-10T04:04:38.292Z,5.51
2023-04-10T04:07:05.622Z,5.45
2023-04-10T04:09:32.870Z,5.46
2023-04-10T04:12:00.186Z,5.46
2023-04-10T04:14:27.481Z,5.37
2023-04-10T04:16:56.143Z,5.21
2023-04-10T04:19:23.518Z,5.23
2023-04-10T04:21:50.960Z,5.24
2023-04-10T04:24:18.227Z,5.26
2023-04-10T04:26:46.076Z,5.24
2023-04-10T04:29:13.342Z,5.19
2023-04-10T04:31:40.656Z,5.14
2023-04-10T04:34:09.284Z,5.27
2023-04-10T04:36:36.565Z,5.35
2023-04-10T04:39:03.831Z,5.28
2023-04-10T04:41:32.285Z,5.45
2023-04-10T04:43:59.703Z,5.56
2023-04-10T04:46:27.039Z,5.72
2023-04-10T04:48:54.385Z,5.73
2023-04-10T04:51:22.963Z,5.66
2023-04-10T04:53:50.357Z,5.36
2023-04-10T04:56:17.986Z,5.30
2023-04-10T04:58:45.266Z,5.54
2023-04-10T05:01:12.834Z,5.73
2023-04-10T05:03:40.427Z,5.68
2023-04-10T05:06:08.159Z,5.79
2023-04-10T05:08:36.722Z,5.85
2023-04-10T05:11:04.022Z,5.90
2023-04-10T05:13:31.264Z,5.71
2023-04-10T05:15:58.527Z,5.75
2023-04-10T05:18:25.849Z,5.91
2023-04-10T05:20:53.154Z,6.04
2023-04-10T05:23:20.396Z,5.99
2023-04-10T05:25:48.999Z,5.96
2023-04-10T05:28:16.252Z,6.03
2023-04-10T05:30:43.570Z,6.16
2023-04-10T05:33:10.868Z,6.10
2023-04-10T05:35:38.450Z,6.12
2023-04-10T05:38:05.730Z,6.21
2023-04-10T05:40:33.030Z,6.34
2023-04-10T05:43:01.606Z,6.63
2023-04-10T05:45:30.104Z,6.83
2023-04-10T05:47:57.395Z,7.09
2023-04-10T05:50:24.690Z,7.35
2023-04-10T05:52:52.001Z,7.44
2023-04-10T05:55:19.396Z,7.73
2023-04-10T05:57:46.660Z,7.93
2023-04-10T06:00:17.849Z,8.26
2023-04-10T06:02:45.788Z,8.27
2023-04-10T06:05:13.150Z,8.39
2023-04-10T06:07:40.548Z,8.47
2023-04-10T06:10:08.620Z,8.45
2023-04-10T06:12:36.043Z,8.46
2023-04-10T06:15:03.544Z,8.64
2023-04-10T06:17:32.207Z,8.73
2023-04-10T06:20:00.995Z,8.65
2023-04-10T06:22:28.591Z,8.75
2023-04-10T06:24:55.878Z,8.64
2023-04-10T06:27:23.321Z,8.97
2023-04-10T06:29:50.711Z,9.27
2023-04-10T06:32:18.042Z,9.34
2023-04-10T06:34:47.246Z,9.65
2023-04-10T06:37:14.512Z,9.74
2023-04-10T06:39:41.774Z,9.78
2023-04-10T06:42:09.327Z,9.93
2023-04-10T06:44:36.934Z,10.04
2023-04-10T06:47:06.729Z,10.11
2023-04-10T06:49:34.449Z,10.08
2023-04-10T06:52:03.017Z,10.24
2023-04-10T06:54:30.307Z,10.25
2023-04-10T06:56:58.890Z,10.34
2023-04-10T06:59:26.299Z,10.51
2023-04-10T07:01:53.553Z,10.52
2023-04-10T07:04:21.159Z,10.69
2023-04-10T07:06:48.412Z,10.69
2023-04-10T07:09:17.180Z,10.96
2023-04-10T07:11:44.495Z,10.97
2023-04-10T07:14:11.992Z,11.09
2023-04-10T07:16:39.472Z,11.15
2023-04-10T07:19:06.852Z,11.29
2023-04-10T07:21:34.177Z,11.32
2023-04-10T07:24:01.427Z,11.48
2023-04-10T07:26:29.998Z,11.59
2023-04-10T07:28:57.277Z,11.79
2023-04-10T07:31:24.888Z,11.98
2023-04-10T07:33:52.385Z,12.12
2023-04-10T07:36:19.684Z,12.35
2023-04-10T07:38:46.954Z,12.45
2023-04-10T07:41:14.308Z,12.74
2023-04-10T07:43:42.908Z,12.74
2023-04-10T07:46:10.191Z,13.00
2023-04-10T07:48:37.796Z,12.88
2023-04-10T07:51:09.043Z,13.29
2023-04-10T07:53:36.547Z,13.50
2023-04-10T07:56:03.811Z,13.69
2023-04-10T07:58:31.091Z,13.63
2023-04-10T08:00:59.678Z,13.76
2023-04-10T08:03:27.186Z,14.02
2023-04-10T08:05:54.779Z,14.25
2023-04-10T08:08:22.043Z,14.39
2023-04-10T08:10:49.432Z,14.38
2023-04-10T08:13:16.680Z,14.55
2023-04-10T08:15:44.029Z,14.59
2023-04-10T08:18:12.643Z,14.55
2023-04-10T08:20:39.950Z,14.49
2023-04-10T08:23:19.662Z,14.73
2023-04-10T08:25:47.977Z,14.90
2023-04-10T08:28:15.319Z,14.45
2023-04-10T08:30:42.927Z,14.66
2023-04-10T08:33:10.215Z,15.11
2023-04-10T08:35:38.846Z,15.07
2023-04-10T08:40:37.879Z,15.26
2023-04-10T08:43:05.165Z,15.09
2023-04-10T08:45:32.424Z,15.27
2023-04-10T08:48:03.096Z,15.49
2023-04-10T08:50:32.156Z,15.85
2023-04-10T08:53:01.130Z,15.97
2023-04-10T08:55:28.461Z,16.33
2023-04-10T08:58:00.951Z,15.83
2023-04-10T09:00:29.202Z,15.83
2023-04-10T09:02:58.351Z,16.06
2023-04-10T09:05:27.628Z,15.90
2023-04-10T09:07:55.152Z,16.23
2023-04-10T09:10:23.859Z,16.30
2023-04-10T09:12:51.482Z,16.38
2023-04-10T09:15:18.765Z,16.49
2023-04-10T09:17:55.935Z,16.77
2023-04-10T09:20:24.347Z,16.53
2023-04-10T09:22:51.863Z,16.52
2023-04-10T09:25:31.507Z,16.76
2023-04-10T09:28:02.706Z,16.67
2023-04-10T09:30:37.218Z,17.00
2023-04-10T09:33:04.712Z,17.23
2023-04-10T09:35:39.330Z,17.24
2023-04-10T09:38:17.018Z,17.25
2023-04-10T09:40:45.780Z,17.28
2023-04-10T09:43:23.072Z,17.24
2023-04-10T09:45:51.635Z,17.35
2023-04-10T09:48:19.344Z,17.63
2023-04-10T09:50:46.765Z,17.75
2023-04-10T09:53:15.226Z,17.46
2023-04-10T09:55:42.913Z,17.48
2023-04-10T09:58:12.095Z,17.88
2023-04-10T10:00:41.009Z,17.64
2023-04-10T10:03:09.756Z,17.86
2023-04-10T10:05:38.262Z,17.83
2023-04-10T10:08:05.828Z,17.63
2023-04-10T10:10:33.203Z,17.58
2023-04-10T10:13:01.210Z,17.28
2023-04-10T10:15:32.147Z,17.49
2023-04-10T10:18:04.694Z,16.96
2023-04-10T10:20:35.216Z,17.23
2023-04-10T10:23:03.950Z,17.60
2023-04-10T10:25:32.197Z,17.96
2023-04-10T10:28:00.793Z,17.94
2023-04-10T10:30:30.536Z,17.76
2023-04-10T10:32:59.634Z,17.84
2023-04-10T10:35:29.623Z,17.28
2023-04-10T10:37:59.453Z,17.10
2023-04-10T10:40:29.610Z,16.72
2023-04-10T10:42:58.531Z,16.80
2023-04-10T10:45:31.146Z,17.20
2023-04-10T10:48:00.261Z,17.61
2023-04-10T10:50:53.183Z,17.75
2023-04-10T10:53:33.441Z,17.92
2023-04-10T10:56:00.929Z,17.51
2023-04-10T10:58:43.150Z,17.59
2023-04-10T11:01:10.869Z,17.78
2023-04-10T11:03:40.081Z,17.94
2023-04-10T11:06:08.403Z,18.35
2023-04-10T11:08:44.161Z,18.38
2023-04-10T11:11:13.002Z,18.46
2023-04-10T11:13:41.127Z,18.25
2023-04-10T11:16:10.423Z,18.53
2023-04-10T11:21:31.492Z,19.13
2023-04-10T11:24:05.496Z,19.10
2023-04-10T11:26:40.129Z,18.53
2023-04-10T11:29:07.745Z,18.52
2023-04-10T11:31:35.278Z,18.52
2023-04-10T11:34:03.995Z,18.43
2023-04-10T11:36:33.198Z,18.43
2023-04-10T11:39:01.044Z,18.60
2023-04-10T11:41:30.326Z,18.77
2023-04-10T11:43:57.717Z,18.60
2023-04-10T11:46:25.346Z,18.48
2023-04-10T11:48:56.972Z,18.32
2023-04-10T11:51:24.368Z,18.69
2023-04-10T11:54:04.999Z,18.83
2023-04-10T11:56:32.717Z,18.79
2023-04-10T11:59:00.008Z,18.64
2023-04-10T12:01:27.265Z,18.46
2023-04-10T12:03:54.696Z,18.30
2023-04-10T12:06:22.554Z,18.25
2023-04-10T12:08:51.096Z,18.34
2023-04-10T12:11:21.212Z,18.42
2023-04-10T12:13:48.705Z,18.48
2023-04-10T12:16:16.247Z,18.51
2023-04-10T12:18:45.165Z,18.50
2023-04-10T12:21:12.785Z,18.35
2023-04-10T12:23:40.491Z,18.48
2023-04-10T12:26:09.397Z,18.53
2023-04-10T12:28:38.550Z,18.63
2023-04-10T12:31:06.440Z,18.53
2023-04-10T12:33:33.742Z,18.75
2023-04-10T12:36:01.261Z,18.99
2023-04-10T12:38:38.336Z,19.22
2023-04-10T12:41:06.569Z,19.24
2023-04-10T12:43:35.049Z,19.10
2023-04-10T12:46:03.874Z,18.93
2023-04-10T12:48:31.283Z,18.85
2023-04-10T12:50:58.668Z,18.71
2023-04-10T12:53:26.189Z,18.75
2023-04-10T12:56:04.016Z,18.86
2023-04-10T12:58:31.982Z,18.69
2023-04-10T13:01:00.390Z,18.76
2023-04-10T13:03:29.267Z,18.51
2023-04-10T13:05:56.725Z,18.68
2023-04-10T13:08:24.057Z,18.74
2023-04-10T13:10:51.629Z,18.63
2023-04-10T13:13:18.997Z,18.82
2023-04-10T13:15:46.381Z,18.73
2023-04-10T13:18:13.803Z,18.61
2023-04-10T13:20:42.493Z,18.72
2023-04-10T13:23:09.918Z,18.85
2023-04-10T13:25:39.569Z,18.73
2023-04-10T13:28:10.964Z,19.04
2023-04-10T13:30:38.601Z,19.05
2023-04-10T13:33:06.020Z,18.91
2023-04-10T13:35:33.843Z,18.78
2023-04-10T13:38:02.539Z,18.82
2023-04-10T13:40:29.883Z,18.50
2023-04-10T13:42:57.137Z,18.40
2023-04-10T13:45:24.399Z,18.33
2023-04-10T13:47:51.679Z,18.09
2023-04-10T13:50:18.993Z,18.16
2023-04-10T13:52:46.403Z,17.94
2023-04-10T13:55:14.999Z,17.85
2023-04-10T13:57:43.245Z,17.69
2023-04-10T14:00:11.004Z,17.65
2023-04-10T14:02:38.402Z,17.72
2023-04-10T14:05:06.072Z,17.93
2023-04-10T14:07:33.877Z,18.03
2023-04-10T14:10:03.132Z,18.02
2023-04-10T14:12:31.794Z,17.97
2023-04-10T14:15:00.152Z,18.01
2023-04-10T14:17:28.029Z,18.09
2023-04-10T14:19:55.433Z,18.08
2023-04-10T14:22:22.743Z,18.03
2023-04-10T14:24:52.608Z,17.95
2023-04-10T14:27:23.679Z,17.91
2023-04-10T14:29:54.937Z,17.89
2023-04-10T14:32:22.522Z,17.90
2023-04-10T14:34:50.131Z,17.85
2023-04-10T14:37:18.999Z,17.83
2023-04-10T14:39:46.309Z,17.90
2023-04-10T14:42:13.574Z,17.85
2023-04-10T14:44:40.979Z,17.85
2023-04-10T14:47:10.391Z,17.62
2023-04-10T14:49:37.653Z,17.58
2023-04-10T14:52:06.150Z,17.50
2023-04-10T14:54:33.412Z,17.40
2023-04-10T14:57:01.907Z,17.40
2023-04-10T14:59:29.189Z,17.44
2023-04-10T15:01:56.583Z,17.45
2023-04-10T15:04:25.263Z,17.39
2023-04-10T15:06:52.765Z,17.41
2023-04-10T15:09:21.914Z,17.38
2023-04-10T15:11:49.301Z,17.33
2023-04-10T15:14:16.556Z,17.31
2023-04-10T15:16:43.863Z,17.27
2023-04-10T15:19:11.123Z,17.27
2023-04-10T15:21:41.198Z,17.13
2023-04-10T15:24:08.472Z,17.11
2023-04-10T15:26:35.759Z,17.14
2023-04-10T15:29:03.332Z,17.10
2023-04-10T15:31:30.658Z,17.15
2023-04-10T15:33:57.913Z,17.13
2023-04-10T15:36:25.565Z,17.04
2023-04-10T15:38:54.229Z,17.04
2023-04-10T15:41:21.590Z,16.99
2023-04-10T15:43:49.393Z,17.01
2023-04-10T15:46:18.055Z,16.94
2023-04-10T15:48:45.891Z,16.86
2023-04-10T15:51:13.153Z,16.80
2023-04-10T15:53:40.507Z,16.65
2023-04-10T15:56:09.580Z,16.62
2023-04-10T15:58:36.834Z,16.55
2023-04-10T16:01:04.347Z,16.48
2023-04-10T16:03:31.756Z,16.44
2023-04-10T16:05:59.060Z,16.35
2023-04-10T16:08:27.345Z,16.35
2023-04-10T16:10:54.889Z,16.31
2023-04-10T16:13:23.480Z,16.31
2023-04-10T16:15:50.774Z,16.27
2023-04-10T16:18:19.894Z,16.29
2023-04-10T16:20:47.172Z,16.37
2023-04-10T16:23:14.442Z,16.41
2023-04-10T16:25:41.759Z,16.38
2023-04-10T16:28:09.121Z,16.43
2023-04-10T16:30:39.559Z,16.45
2023-04-10T16:33:08.158Z,16.44
2023-04-10T16:35:35.518Z,16.43
2023-04-10T16:38:02.861Z,16.41
2023-04-10T16:40:32.527Z,16.36
2023-04-10T16:43:00.980Z,16.26
2023-04-10T16:45:28.314Z,16.31
2023-04-10T16:47:58.712Z,16.32
2023-04-10T16:50:26.008Z,16.25
2023-04-10T16:52:53.362Z,16.18
2023-04-10T16:55:20.951Z,16.21
2023-04-10T16:57:48.235Z,16.16
2023-04-10T17:00:15.870Z,16.11
2023-04-10T17:02:43.983Z,16.03
2023-04-10T17:05:13.649Z,15.99
2023-04-10T17:07:43.602Z,15.88
2023-04-10T17:10:11.915Z,15.86
2023-04-10T17:12:39.260Z,15.81
2023-04-10T17:15:07.043Z,15.80
2023-04-10T17:17:34.469Z,15.75
2023-04-10T17:20:01.849Z,15.66
2023-04-10T17:22:30.503Z,15.60
2023-04-10T17:24:57.817Z,15.49
2023-04-10T17:27:25.278Z,15.47
2023-04-10T17:29:52.544Z,15.35
2023-04-10T17:32:19.984Z,15.33
2023-04-10T17:34:47.457Z,15.24
2023-04-10T17:37:14.714Z,15.20
2023-04-10T17:39:43.285Z,15.06
2023-04-10T17:42:10.604Z,15.12
2023-04-10T17:44:37.899Z,15.04
2023-04-10T17:47:05.363Z,14.93
2023-04-10T17:49:32.618Z,14.79
2023-04-10T17:51:59.867Z,14.78
2023-04-10T17:54:27.147Z,14.60
2023-04-10T17:56:56.707Z,14.51
2023-04-10T17:59:23.984Z,14.47
2023-04-10T18:01:51.358Z,14.40
2023-04-10T18:04:18.741Z,14.38
2023-04-10T18:06:46.033Z,14.40
2023-04-10T18:09:13.421Z,14.30
2023-04-10T18:11:40.813Z,14.17
2023-04-10T18:14:10.257Z,14.16
2023-04-10T18:16:37.580Z,14.04
2023-04-10T18:19:04.865Z,14.04
2023-04-10T18:21:34.555Z,14.02
2023-04-10T18:24:01.856Z,13.91
2023-04-10T18:26:31.591Z,13.80
2023-04-10T18:28:58.863Z,13.83
2023-04-10T18:31:27.713Z,13.76
2023-04-10T18:34:06.410Z,13.49
2023-04-10T18:36:34.806Z,13.37
2023-04-10T18:39:02.062Z,13.26
2023-04-10T18:41:29.389Z,13.11
2023-04-10T18:44:04.709Z,13.22
2023-04-10T18:46:34.467Z,13.12
2023-04-10T18:49:03.052Z,13.18
2023-04-10T18:51:31.246Z,13.13
2023-04-10T18:54:02.094Z,12.92
2023-04-10T18:56:29.435Z,12.77
2023-04-10T18:59:00.152Z,12.70
2023-04-10T19:01:28.137Z,12.73
2023-04-10T19:03:57.289Z,12.62
2023-04-10T19:06:25.455Z,12.65
2023-04-10T19:08:52.718Z,12.65
2023-04-10T19:11:21.068Z,12.65
2023-04-10T19:13:48.783Z,12.46
2023-04-10T19:16:19.322Z,12.43
2023-04-10T19:18:47.262Z,12.30
2023-04-10T19:21:16.099Z,12.24
2023-04-10T19:23:43.401Z,12.08
2023-04-10T19:26:10.768Z,11.89
2023-04-10T19:28:42.065Z,11.88
2023-04-10T19:31:09.574Z,11.97
2023-04-10T19:33:36.869Z,11.94
2023-04-10T19:36:08.697Z,11.95
2023-04-10T19:38:37.459Z,12.09
2023-04-10T19:41:13.288Z,12.06
2023-04-10T19:43:40.796Z,11.80
2023-04-10T19:46:08.230Z,11.86
2023-04-10T19:48:35.539Z,11.84
2023-04-10T19:51:04.736Z,11.91
2023-04-10T19:53:31.980Z,12.02
2023-04-10T19:56:00.557Z,12.00
2023-04-10T19:58:39.870Z,11.76
2023-04-10T20:01:09.519Z,11.70
2023-04-10T20:03:38.388Z,11.79
2023-04-10T20:06:07.201Z,11.76
2023-04-10T20:08:34.564Z,11.69
2023-04-10T20:11:05.809Z,11.54
2023-04-10T20:13:33.826Z,11.51
2023-04-10T20:16:01.268Z,11.44
2023-04-10T20:18:28.581Z,11.44
2023-04-10T20:20:55.881Z,11.51
2023-04-10T20:23:23.157Z,11.47
2023-04-10T20:25:50.404Z,11.58
2023-04-10T20:28:19.021Z,11.58
2023-04-10T20:30:46.328Z,11.54
2023-04-10T20:33:13.691Z,11.56
2023-04-10T20:35:41.042Z,11.60
2023-04-10T20:38:08.346Z,11.66
2023-04-10T20:40:35.839Z,11.59
2023-04-10T20:43:03.186Z,11.57
2023-04-10T20:45:31.776Z,11.59
2023-04-10T20:47:59.149Z,11.55
2023-04-10T20:50:26.421Z,11.60
2023-04-10T20:52:53.717Z,11.56
2023-04-10T20:55:20.956Z,11.54
2023-04-10T20:57:48.216Z,11.37
2023-04-10T21:00:15.892Z,11.34
2023-04-10T21:02:44.630Z,11.35
2023-04-10T21:05:12.786Z,11.24
2023-04-10T21:07:40.090Z,11.23
2023-04-10T21:10:07.740Z,11.16
2023-04-10T21:12:35.006Z,11.24
2023-04-10T21:15:02.286Z,11.20
2023-04-10T21:17:31.484Z,11.25
2023-04-10T21:20:00.439Z,11.21
2023-04-10T21:22:29.386Z,11.20
2023-04-10T21:24:56.995Z,11.27
2023-04-10T21:27:24.785Z,11.25
2023-04-10T21:29:52.072Z,11.31
2023-04-10T21:32:19.391Z,11.30
2023-04-10T21:34:47.016Z,11.27
2023-04-10T21:37:15.929Z,11.22
2023-04-10T21:39:43.200Z,10.95
2023-04-10T21:42:10.604Z,11.03
2023-04-10T21:44:37.889Z,11.11
2023-04-10T21:47:05.375Z,11.01
2023-04-10T21:49:32.634Z,11.17
2023-04-10T21:52:00.128Z,11.12
2023-04-10T21:54:29.410Z,11.10
2023-04-10T21:56:56.664Z,11.18
2023-04-10T21:59:23.993Z,11.17
2023-04-10T22:01:51.466Z,11.29
2023-04-10T22:04:19.139Z,11.23
2023-04-10T22:06:46.534Z,11.36
2023-04-10T22:09:13.892Z,11.27
2023-04-10T22:11:42.500Z,11.34
2023-04-10T22:14:17.045Z,11.32
2023-04-10T22:16:45.564Z,11.38
2023-04-10T22:19:12.866Z,11.34
2023-04-10T22:21:40.132Z,11.42
2023-04-10T22:24:07.568Z,11.39
2023-04-10T22:26:34.869Z,11.38
2023-04-10T22:29:03.675Z,11.41
2023-04-10T22:31:30.996Z,11.49
2023-04-10T22:33:58.327Z,11.44
2023-04-10T22:36:26.102Z,11.44
2023-04-10T22:38:53.839Z,11.45
2023-04-10T22:41:21.248Z,11.31
2023-04-10T22:43:48.511Z,11.38
2023-04-10T22:46:17.128Z,11.45
2023-04-10T22:48:46.321Z,11.37
2023-04-10T22:51:14.343Z,11.39
2023-04-10T22:53:41.848Z,11.45
2023-04-10T22:56:09.793Z,11.36
2023-04-10T22:58:39.140Z,11.34
2023-04-10T23:01:07.090Z,11.38
2023-04-10T23:03:35.772Z,11.40
2023-04-10T23:06:03.060Z,11.28
2023-04-10T23:08:30.419Z,11.36
2023-04-10T23:10:57.710Z,11.40
2023-04-10T23:13:24.980Z,11.44
2023-04-10T23:15:52.810Z,11.37
2023-04-10T23:18:20.480Z,11.44
2023-04-10T23:20:49.851Z,11.38
2023-04-10T23:23:18.069Z,11.42
2023-04-10T23:25:45.375Z,11.55
2023-04-10T23:28:12.632Z,11.57
2023-04-10T23:30:40.179Z,11.57
2023-04-10T23:33:07.534Z,11.55
2023-04-10T23:35:34.877Z,11.57
2023-04-10T23:38:03.474Z,11.62
2023-04-10T23:40:30.753Z,11.61
2023-04-10T23:42:58.020Z,11.67
2023-04-10T23:45:25.384Z,11.67
2023-04-10T23:47:52.930Z,11.66
2023-04-10T23:50:20.257Z,11.68
2023-04-10T23:52:48.830Z,11.61
2023-04-10T23:55:17.932Z,11.65
2023-04-10T23:57:45.259Z,11.66
